sensor_id;sensor_type;location;lat;lon;timestamp;temperature;humidity
8914;DHT22;4492;48.736;9.092;2022-09-14T00:01:11;18.00;99.90
8914;DHT22;4492;48.736;9.092;2022-09-14T00:03:37;18.00;99.90
8914;DHT22;4492;48.736;9.092;2022-09-14T00:06:07;18.00;99.90
8914;DHT22;4492;48.736;9.092;2022-09-14T00:08:34;17.90;99.90
8914;DHT22;4492;48.736;9.092;2022-09-14T00:11:07;18.00;99.90
8914;DHT22;4492;48.736;9.092;2022-09-14T00:13:34;18.00;99.90
8914;DHT22;4492;48.736;9.092;2022-09-14T00:16:06;18.00;99.90
8914;DHT22;4492;48.736;9.092;2022-09-14T00:18:33;18.00;99.90
8914;DHT22;4492;48.736;9.092;2022-09-14T00:21:00;17.90;99.90
8914;DHT22;4492;48.736;9.092;2022-09-14T00:23:26;18.00;99.90
8914;DHT22;4492;48.736;9.092;2022-09-14T00:25:51;18.00;99.90
8914;DHT22;4492;48.736;9.092;2022-09-14T00:28:17;18.00;99.90
8914;DHT22;4492;48.736;9.092;2022-09-14T00:30:42;18.10;99.90
8914;DHT22;4492;48.736;9.092;2022-09-14T00:33:08;18.10;99.90
8914;DHT22;4492;48.736;9.092;2022-09-14T00:35:34;18.10;99.90
8914;DHT22;4492;48.736;9.092;2022-09-14T00:38:00;18.20;99.90
8914;DHT22;4492;48.736;9.092;2022-09-14T00:40:26;18.30;99.90
8914;DHT22;4492;48.736;9.092;2022-09-14T00:42:51;18.20;99.90
8914;DHT22;4492;48.736;9.092;2022-09-14T00:45:21;18.40;99.90
8914;DHT22;4492;48.736;9.092;2022-09-14T00:47:49;18.40;99.90
8914;DHT22;4492;48.736;9.092;2022-09-14T00:50:15;18.40;99.90
8914;DHT22;4492;48.736;9.092;2022-09-14T00:52:44;18.40;99.90
8914;DHT22;4492;48.736;9.092;2022-09-14T00:55:14;18.50;99.90
8914;DHT22;4492;48.736;9.092;2022-09-14T00:57:48;18.40;99.90
8914;DHT22;4492;48.736;9.092;2022-09-14T01:00:22;18.40;99.90
8914;DHT22;4492;48.736;9.092;2022-09-14T01:02:47;18.30;99.90
8914;DHT22;4492;48.736;9.092;2022-09-14T01:05:13;18.30;99.90
8914;DHT22;4492;48.736;9.092;2022-09-14T01:08:04;18.30;99.90
8914;DHT22;4492;48.736;9.092;2022-09-14T01:16:16;18.30;99.90
8914;DHT22;4492;48.736;9.092;2022-09-14T01:18:50;18.20;99.90
8914;DHT22;4492;48.736;9.092;2022-09-14T01:21:27;18.20;99.90
8914;DHT22;4492;48.736;9.092;2022-09-14T01:24:15;18.20;99.90
8914;DHT22;4492;48.736;9.092;2022-09-14T01:33:04;17.70;99.90
8914;DHT22;4492;48.736;9.092;2022-09-14T01:35:37;17.30;99.90
8914;DHT22;4492;48.736;9.092;2022-09-14T01:38:32;17.20;99.90
8914;DHT22;4492;48.736;9.092;2022-09-14T01:40:59;17.10;99.90
8914;DHT22;4492;48.736;9.092;2022-09-14T01:43:33;17.10;99.90
8914;DHT22;4492;48.736;9.092;2022-09-14T01:46:15;17.00;99.90
8914;DHT22;4492;48.736;9.092;2022-09-14T01:48:47;16.90;99.90
8914;DHT22;4492;48.736;9.092;2022-09-14T01:51:21;16.90;99.90
8914;DHT22;4492;48.736;9.092;2022-09-14T01:53:51;16.90;99.90
8914;DHT22;4492;48.736;9.092;2022-09-14T01:56:39;16.90;99.90
8914;DHT22;4492;48.736;9.092;2022-09-14T01:59:20;16.90;99.90
8914;DHT22;4492;48.736;9.092;2022-09-14T02:01:55;16.90;99.90
8914;DHT22;4492;48.736;9.092;2022-09-14T02:04:34;16.80;99.90
8914;DHT22;4492;48.736;9.092;2022-09-14T02:07:00;16.80;99.90
8914;DHT22;4492;48.736;9.092;2022-09-14T02:09:26;16.80;99.90
8914;DHT22;4492;48.736;9.092;2022-09-14T02:11:53;16.80;99.90
8914;DHT22;4492;48.736;9.092;2022-09-14T02:14:21;16.80;99.90
8914;DHT22;4492;48.736;9.092;2022-09-14T02:16:46;16.70;99.90
8914;DHT22;4492;48.736;9.092;2022-09-14T02:19:12;16.70;99.90
8914;DHT22;4492;48.736;9.092;2022-09-14T02:21:38;16.60;99.90
8914;DHT22;4492;48.736;9.092;2022-09-14T02:24:04;16.60;99.90
8914;DHT22;4492;48.736;9.092;2022-09-14T02:26:31;16.50;99.90
8914;DHT22;4492;48.736;9.092;2022-09-14T02:28:57;16.50;99.90
8914;DHT22;4492;48.736;9.092;2022-09-14T02:31:52;16.50;99.90
8914;DHT22;4492;48.736;9.092;2022-09-14T02:34:29;16.40;99.90
8914;DHT22;4492;48.736;9.092;2022-09-14T02:37:28;16.40;99.90
8914;DHT22;4492;48.736;9.092;2022-09-14T02:40:09;16.40;99.90
8914;DHT22;4492;48.736;9.092;2022-09-14T02:45:27;16.40;99.90
8914;DHT22;4492;48.736;9.092;2022-09-14T02:48:03;16.40;99.90
8914;DHT22;4492;48.736;9.092;2022-09-14T02:53:29;16.40;99.90
8914;DHT22;4492;48.736;9.092;2022-09-14T02:56:02;16.40;99.90
8914;DHT22;4492;48.736;9.092;2022-09-14T02:58:34;16.40;99.90
8914;DHT22;4492;48.736;9.092;2022-09-14T03:01:00;16.40;99.90
8914;DHT22;4492;48.736;9.092;2022-09-14T03:03:26;16.40;99.90
8914;DHT22;4492;48.736;9.092;2022-09-14T03:05:51;16.30;99.90
8914;DHT22;4492;48.736;9.092;2022-09-14T03:08:17;16.40;99.90
8914;DHT22;4492;48.736;9.092;2022-09-14T03:10:43;16.40;99.90
8914;DHT22;4492;48.736;9.092;2022-09-14T03:13:09;16.40;99.90
8914;DHT22;4492;48.736;9.092;2022-09-14T03:15:34;16.40;99.90
8914;DHT22;4492;48.736;9.092;2022-09-14T03:18:00;16.40;99.90
8914;DHT22;4492;48.736;9.092;2022-09-14T03:20:27;16.40;99.90
8914;DHT22;4492;48.736;9.092;2022-09-14T03:22:53;16.40;99.90
8914;DHT22;4492;48.736;9.092;2022-09-14T03:25:19;16.40;99.90
8914;DHT22;4492;48.736;9.092;2022-09-14T03:27:49;16.40;99.90
8914;DHT22;4492;48.736;9.092;2022-09-14T03:30:15;16.40;99.90
8914;DHT22;4492;48.736;9.092;2022-09-14T03:32:41;16.40;99.90
8914;DHT22;4492;48.736;9.092;2022-09-14T03:35:07;16.40;99.90
8914;DHT22;4492;48.736;9.092;2022-09-14T03:37:36;16.40;99.90
8914;DHT22;4492;48.736;9.092;2022-09-14T03:40:02;16.40;99.90
8914;DHT22;4492;48.736;9.092;2022-09-14T03:42:28;16.40;99.90
8914;DHT22;4492;48.736;9.092;2022-09-14T03:44:54;16.40;99.90
8914;DHT22;4492;48.736;9.092;2022-09-14T03:47:19;16.40;99.90
8914;DHT22;4492;48.736;9.092;2022-09-14T03:49:45;16.40;99.90
8914;DHT22;4492;48.736;9.092;2022-09-14T03:52:10;16.40;99.90
8914;DHT22;4492;48.736;9.092;2022-09-14T03:54:36;16.40;99.90
8914;DHT22;4492;48.736;9.092;2022-09-14T03:57:01;16.40;99.90
8914;DHT22;4492;48.736;9.092;2022-09-14T03:59:27;16.50;99.90
8914;DHT22;4492;48.736;9.092;2022-09-14T04:01:52;16.50;99.90
8914;DHT22;4492;48.736;9.092;2022-09-14T04:04:18;16.50;99.90
8914;DHT22;4492;48.736;9.092;2022-09-14T04:06:43;16.50;99.90
8914;DHT22;4492;48.736;9.092;2022-09-14T04:09:09;16.50;99.90
8914;DHT22;4492;48.736;9.092;2022-09-14T04:11:34;16.50;99.90
8914;DHT22;4492;48.736;9.092;2022-09-14T04:14:04;16.50;99.90
8914;DHT22;4492;48.736;9.092;2022-09-14T04:16:30;16.50;99.90
8914;DHT22;4492;48.736;9.092;2022-09-14T04:18:55;16.50;99.90
8914;DHT22;4492;48.736;9.092;2022-09-14T04:21:22;16.50;99.90
8914;DHT22;4492;48.736;9.092;2022-09-14T04:23:52;16.50;99.90
8914;DHT22;4492;48.736;9.092;2022-09-14T04:26:19;16.50;99.90
8914;DHT22;4492;48.736;9.092;2022-09-14T04:28:45;16.60;99.90
8914;DHT22;4492;48.736;9.092;2022-09-14T04:31:11;16.60;99.90
8914;DHT22;4492;48.736;9.092;2022-09-14T04:33:39;16.60;99.90
8914;DHT22;4492;48.736;9.092;2022-09-14T04:36:07;16.60;99.90
8914;DHT22;4492;48.736;9.092;2022-09-14T04:38:34;16.60;99.90
8914;DHT22;4492;48.736;9.092;2022-09-14T04:41:04;16.70;99.90
8914;DHT22;4492;48.736;9.092;2022-09-14T04:43:30;16.70;99.90
8914;DHT22;4492;48.736;9.092;2022-09-14T04:46:01;16.70;99.90
8914;DHT22;4492;48.736;9.092;2022-09-14T04:48:27;16.70;99.90
8914;DHT22;4492;48.736;9.092;2022-09-14T04:50:53;16.70;99.90
8914;DHT22;4492;48.736;9.092;2022-09-14T04:53:18;16.70;99.90
8914;DHT22;4492;48.736;9.092;2022-09-14T04:55:44;16.80;99.90
8914;DHT22;4492;48.736;9.092;2022-09-14T04:58:09;16.80;99.90
8914;DHT22;4492;48.736;9.092;2022-09-14T05:00:35;16.80;99.90
8914;DHT22;4492;48.736;9.092;2022-09-14T05:03:02;16.90;99.90
8914;DHT22;4492;48.736;9.092;2022-09-14T05:05:28;16.90;99.90
8914;DHT22;4492;48.736;9.092;2022-09-14T05:07:53;16.90;99.90
8914;DHT22;4492;48.736;9.092;2022-09-14T05:10:19;16.90;99.90
8914;DHT22;4492;48.736;9.092;2022-09-14T05:12:44;17.00;99.90
8914;DHT22;4492;48.736;9.092;2022-09-14T05:15:10;17.00;99.90
8914;DHT22;4492;48.736;9.092;2022-09-14T05:17:35;17.00;99.90
8914;DHT22;4492;48.736;9.092;2022-09-14T05:20:01;17.10;99.90
8914;DHT22;4492;48.736;9.092;2022-09-14T05:22:28;17.10;99.90
8914;DHT22;4492;48.736;9.092;2022-09-14T05:24:53;17.20;99.90
8914;DHT22;4492;48.736;9.092;2022-09-14T05:27:19;17.20;99.90
8914;DHT22;4492;48.736;9.092;2022-09-14T05:29:44;17.30;99.90
8914;DHT22;4492;48.736;9.092;2022-09-14T05:32:10;17.30;99.90
8914;DHT22;4492;48.736;9.092;2022-09-14T05:34:36;17.40;99.90
8914;DHT22;4492;48.736;9.092;2022-09-14T05:37:02;17.40;99.90
8914;DHT22;4492;48.736;9.092;2022-09-14T05:39:27;17.50;99.90
8914;DHT22;4492;48.736;9.092;2022-09-14T05:41:53;17.50;99.90
8914;DHT22;4492;48.736;9.092;2022-09-14T05:44:19;17.60;99.90
8914;DHT22;4492;48.736;9.092;2022-09-14T05:46:44;17.60;99.90
8914;DHT22;4492;48.736;9.092;2022-09-14T05:49:10;17.60;99.90
8914;DHT22;4492;48.736;9.092;2022-09-14T05:51:35;17.60;99.90
8914;DHT22;4492;48.736;9.092;2022-09-14T05:54:01;17.70;99.90
8914;DHT22;4492;48.736;9.092;2022-09-14T05:56:33;17.70;99.90
8914;DHT22;4492;48.736;9.092;2022-09-14T05:58:59;17.70;99.90
8914;DHT22;4492;48.736;9.092;2022-09-14T06:01:27;17.80;99.90
8914;DHT22;4492;48.736;9.092;2022-09-14T06:03:55;17.80;99.90
8914;DHT22;4492;48.736;9.092;2022-09-14T06:06:21;17.80;99.90
8914;DHT22;4492;48.736;9.092;2022-09-14T06:08:49;17.90;99.90
8914;DHT22;4492;48.736;9.092;2022-09-14T06:11:23;17.90;99.90
8914;DHT22;4492;48.736;9.092;2022-09-14T06:13:48;18.00;99.90
8914;DHT22;4492;48.736;9.092;2022-09-14T06:16:17;18.00;99.90
8914;DHT22;4492;48.736;9.092;2022-09-14T06:18:44;18.10;99.90
8914;DHT22;4492;48.736;9.092;2022-09-14T06:21:11;18.10;99.90
8914;DHT22;4492;48.736;9.092;2022-09-14T06:23:39;18.20;99.90
8914;DHT22;4492;48.736;9.092;2022-09-14T06:26:05;18.30;99.90
8914;DHT22;4492;48.736;9.092;2022-09-14T06:28:32;18.30;99.90
8914;DHT22;4492;48.736;9.092;2022-09-14T06:30:58;18.30;99.90
8914;DHT22;4492;48.736;9.092;2022-09-14T06:33:24;18.40;99.90
8914;DHT22;4492;48.736;9.092;2022-09-14T06:35:57;18.50;99.90
8914;DHT22;4492;48.736;9.092;2022-09-14T06:38:24;18.60;99.90
8914;DHT22;4492;48.736;9.092;2022-09-14T06:40:55;18.60;99.90
8914;DHT22;4492;48.736;9.092;2022-09-14T06:43:22;18.60;99.90
8914;DHT22;4492;48.736;9.092;2022-09-14T06:48:38;18.60;99.90
8914;DHT22;4492;48.736;9.092;2022-09-14T06:51:16;18.70;99.90
8914;DHT22;4492;48.736;9.092;2022-09-14T06:53:43;18.70;99.90
8914;DHT22;4492;48.736;9.092;2022-09-14T06:56:09;18.80;99.90
8914;DHT22;4492;48.736;9.092;2022-09-14T06:58:35;18.80;99.90
8914;DHT22;4492;48.736;9.092;2022-09-14T07:01:05;19.00;99.90
8914;DHT22;4492;48.736;9.092;2022-09-14T07:03:34;19.10;99.90
8914;DHT22;4492;48.736;9.092;2022-09-14T07:06:09;19.10;99.90
8914;DHT22;4492;48.736;9.092;2022-09-14T07:08:36;19.20;99.90
8914;DHT22;4492;48.736;9.092;2022-09-14T07:11:07;19.30;99.90
8914;DHT22;4492;48.736;9.092;2022-09-14T07:13:33;19.30;99.90
8914;DHT22;4492;48.736;9.092;2022-09-14T07:15:58;19.40;99.90
8914;DHT22;4492;48.736;9.092;2022-09-14T07:18:25;19.60;99.90
8914;DHT22;4492;48.736;9.092;2022-09-14T07:20:54;19.70;99.90
8914;DHT22;4492;48.736;9.092;2022-09-14T07:23:20;19.70;99.90
8914;DHT22;4492;48.736;9.092;2022-09-14T07:25:46;19.80;99.90
8914;DHT22;4492;48.736;9.092;2022-09-14T07:28:12;19.80;99.90
8914;DHT22;4492;48.736;9.092;2022-09-14T07:30:38;19.90;99.90
8914;DHT22;4492;48.736;9.092;2022-09-14T07:33:04;19.90;99.90
8914;DHT22;4492;48.736;9.092;2022-09-14T07:35:31;20.00;99.90
8914;DHT22;4492;48.736;9.092;2022-09-14T07:37:56;20.00;99.90
8914;DHT22;4492;48.736;9.092;2022-09-14T07:40:23;20.00;99.90
8914;DHT22;4492;48.736;9.092;2022-09-14T07:42:54;20.10;99.90
8914;DHT22;4492;48.736;9.092;2022-09-14T07:45:21;20.20;99.90
8914;DHT22;4492;48.736;9.092;2022-09-14T07:47:47;20.20;99.90
8914;DHT22;4492;48.736;9.092;2022-09-14T07:50:13;20.30;99.90
8914;DHT22;4492;48.736;9.092;2022-09-14T07:52:38;20.40;99.90
8914;DHT22;4492;48.736;9.092;2022-09-14T07:55:05;20.40;99.90
8914;DHT22;4492;48.736;9.092;2022-09-14T07:57:31;20.50;99.90
8914;DHT22;4492;48.736;9.092;2022-09-14T07:59:56;20.60;99.90
8914;DHT22;4492;48.736;9.092;2022-09-14T08:02:23;20.70;99.90
8914;DHT22;4492;48.736;9.092;2022-09-14T08:04:49;20.90;99.90
8914;DHT22;4492;48.736;9.092;2022-09-14T08:07:17;21.20;99.90
8914;DHT22;4492;48.736;9.092;2022-09-14T08:09:42;21.40;99.90
8914;DHT22;4492;48.736;9.092;2022-09-14T08:12:09;21.50;99.90
8914;DHT22;4492;48.736;9.092;2022-09-14T08:14:35;21.70;99.90
8914;DHT22;4492;48.736;9.092;2022-09-14T08:17:01;21.90;99.90
8914;DHT22;4492;48.736;9.092;2022-09-14T08:19:27;22.00;99.90
8914;DHT22;4492;48.736;9.092;2022-09-14T08:21:52;22.10;99.90
8914;DHT22;4492;48.736;9.092;2022-09-14T08:24:19;22.10;99.90
8914;DHT22;4492;48.736;9.092;2022-09-14T08:26:46;22.20;99.90
8914;DHT22;4492;48.736;9.092;2022-09-14T08:29:13;22.40;99.90
8914;DHT22;4492;48.736;9.092;2022-09-14T08:31:39;22.50;99.90
8914;DHT22;4492;48.736;9.092;2022-09-14T08:34:07;22.40;99.90
8914;DHT22;4492;48.736;9.092;2022-09-14T08:36:39;22.50;99.90
8914;DHT22;4492;48.736;9.092;2022-09-14T08:39:06;22.50;99.90
8914;DHT22;4492;48.736;9.092;2022-09-14T08:44:13;22.20;99.90
8914;DHT22;4492;48.736;9.092;2022-09-14T08:46:48;22.10;99.90
8914;DHT22;4492;48.736;9.092;2022-09-14T08:51:44;22.00;99.90
8914;DHT22;4492;48.736;9.092;2022-09-14T08:54:10;22.10;99.90
8914;DHT22;4492;48.736;9.092;2022-09-14T08:56:40;22.20;99.90
8914;DHT22;4492;48.736;9.092;2022-09-14T08:59:22;22.30;99.90
8914;DHT22;4492;48.736;9.092;2022-09-14T09:02:16;22.40;99.90
8914;DHT22;4492;48.736;9.092;2022-09-14T09:04:52;22.50;99.90
8914;DHT22;4492;48.736;9.092;2022-09-14T09:07:41;22.60;99.90
8914;DHT22;4492;48.736;9.092;2022-09-14T09:10:11;22.70;99.90
8914;DHT22;4492;48.736;9.092;2022-09-14T09:12:41;22.70;99.90
8914;DHT22;4492;48.736;9.092;2022-09-14T09:15:20;22.80;99.90
8914;DHT22;4492;48.736;9.092;2022-09-14T09:17:51;22.70;99.90
8914;DHT22;4492;48.736;9.092;2022-09-14T09:20:43;22.70;99.90
8914;DHT22;4492;48.736;9.092;2022-09-14T09:23:14;22.90;99.90
8914;DHT22;4492;48.736;9.092;2022-09-14T09:25:51;22.90;99.90
8914;DHT22;4492;48.736;9.092;2022-09-14T09:28:19;23.00;99.90
8914;DHT22;4492;48.736;9.092;2022-09-14T09:30:45;23.10;99.90
8914;DHT22;4492;48.736;9.092;2022-09-14T09:33:18;23.30;99.90
8914;DHT22;4492;48.736;9.092;2022-09-14T09:35:44;23.50;99.90
8914;DHT22;4492;48.736;9.092;2022-09-14T09:38:15;23.50;99.90
8914;DHT22;4492;48.736;9.092;2022-09-14T09:40:45;23.60;99.90
8914;DHT22;4492;48.736;9.092;2022-09-14T09:43:17;23.70;99.90
8914;DHT22;4492;48.736;9.092;2022-09-14T09:48:09;23.70;99.90
8914;DHT22;4492;48.736;9.092;2022-09-14T09:50:35;23.60;99.90
8914;DHT22;4492;48.736;9.092;2022-09-14T09:53:00;23.50;99.90
8914;DHT22;4492;48.736;9.092;2022-09-14T09:55:33;23.40;99.90
8914;DHT22;4492;48.736;9.092;2022-09-14T10:00:59;23.60;99.90
8914;DHT22;4492;48.736;9.092;2022-09-14T10:03:34;23.90;99.90
8914;DHT22;4492;48.736;9.092;2022-09-14T10:06:05;24.10;99.90
8914;DHT22;4492;48.736;9.092;2022-09-14T10:08:32;24.30;99.90
8914;DHT22;4492;48.736;9.092;2022-09-14T10:11:00;24.20;99.90
8914;DHT22;4492;48.736;9.092;2022-09-14T10:13:33;24.30;99.90
8914;DHT22;4492;48.736;9.092;2022-09-14T10:18:31;24.40;99.90
8914;DHT22;4492;48.736;9.092;2022-09-14T10:23:25;24.30;99.90
8914;DHT22;4492;48.736;9.092;2022-09-14T10:28:34;24.40;99.90
8914;DHT22;4492;48.736;9.092;2022-09-14T10:33:29;24.80;99.90
8914;DHT22;4492;48.736;9.092;2022-09-14T10:36:06;25.00;99.90
8914;DHT22;4492;48.736;9.092;2022-09-14T10:38:46;25.00;99.90
8914;DHT22;4492;48.736;9.092;2022-09-14T10:41:21;25.10;99.90
8914;DHT22;4492;48.736;9.092;2022-09-14T10:46:39;25.30;99.90
8914;DHT22;4492;48.736;9.092;2022-09-14T10:54:34;25.30;99.90
8914;DHT22;4492;48.736;9.092;2022-09-14T11:00:11;25.40;99.90
8914;DHT22;4492;48.736;9.092;2022-09-14T11:13:24;25.50;99.90
8914;DHT22;4492;48.736;9.092;2022-09-14T11:18:50;25.50;99.90
8914;DHT22;4492;48.736;9.092;2022-09-14T11:24:10;25.50;99.90
8914;DHT22;4492;48.736;9.092;2022-09-14T11:26:43;25.50;99.90
8914;DHT22;4492;48.736;9.092;2022-09-14T11:29:37;25.50;99.90
8914;DHT22;4492;48.736;9.092;2022-09-14T11:32:12;25.50;99.90
8914;DHT22;4492;48.736;9.092;2022-09-14T11:34:54;25.50;99.90
8914;DHT22;4492;48.736;9.092;2022-09-14T11:37:35;25.50;99.90
8914;DHT22;4492;48.736;9.092;2022-09-14T11:40:13;25.70;99.50
8914;DHT22;4492;48.736;9.092;2022-09-14T11:45:21;26.30;97.80
8914;DHT22;4492;48.736;9.092;2022-09-14T11:48:00;26.40;97.20
8914;DHT22;4492;48.736;9.092;2022-09-14T11:50:29;26.20;97.30
8914;DHT22;4492;48.736;9.092;2022-09-14T11:53:14;26.10;97.90
8914;DHT22;4492;48.736;9.092;2022-09-14T11:55:45;26.10;97.40
8914;DHT22;4492;48.736;9.092;2022-09-14T11:58:17;25.80;97.30
8914;DHT22;4492;48.736;9.092;2022-09-14T12:11:48;25.00;99.60
8914;DHT22;4492;48.736;9.092;2022-09-14T12:17:31;24.90;99.50
8914;DHT22;4492;48.736;9.092;2022-09-14T12:22:48;24.70;99.80
8914;DHT22;4492;48.736;9.092;2022-09-14T12:25:16;24.70;99.90
8914;DHT22;4492;48.736;9.092;2022-09-14T12:27:45;24.60;99.90
8914;DHT22;4492;48.736;9.092;2022-09-14T12:31:04;24.60;99.90
8914;DHT22;4492;48.736;9.092;2022-09-14T12:36:07;24.20;99.90
8914;DHT22;4492;48.736;9.092;2022-09-14T12:46:29;22.30;99.90
8914;DHT22;4492;48.736;9.092;2022-09-14T12:48:59;22.00;99.90
8914;DHT22;4492;48.736;9.092;2022-09-14T12:56:41;21.20;99.90
8914;DHT22;4492;48.736;9.092;2022-09-14T13:04:54;20.40;99.90
8914;DHT22;4492;48.736;9.092;2022-09-14T13:07:21;20.30;99.90
8914;DHT22;4492;48.736;9.092;2022-09-14T13:09:51;20.20;99.90
8914;DHT22;4492;48.736;9.092;2022-09-14T13:12:33;20.10;99.90
8914;DHT22;4492;48.736;9.092;2022-09-14T13:15:27;20.00;99.90
8914;DHT22;4492;48.736;9.092;2022-09-14T13:20:39;19.80;99.90
8914;DHT22;4492;48.736;9.092;2022-09-14T13:23:42;19.70;99.90
8914;DHT22;4492;48.736;9.092;2022-09-14T13:26:15;19.70;99.90
8914;DHT22;4492;48.736;9.092;2022-09-14T13:28:44;19.60;99.90
8914;DHT22;4492;48.736;9.092;2022-09-14T13:31:13;19.70;99.90
8914;DHT22;4492;48.736;9.092;2022-09-14T13:33:46;19.70;99.90
8914;DHT22;4492;48.736;9.092;2022-09-14T13:36:16;19.80;99.90
8914;DHT22;4492;48.736;9.092;2022-09-14T13:38:43;19.80;99.90
8914;DHT22;4492;48.736;9.092;2022-09-14T13:41:14;19.80;99.90
8914;DHT22;4492;48.736;9.092;2022-09-14T13:43:42;19.80;99.90
8914;DHT22;4492;48.736;9.092;2022-09-14T13:46:09;19.90;99.90
8914;DHT22;4492;48.736;9.092;2022-09-14T13:48:37;19.90;99.90
8914;DHT22;4492;48.736;9.092;2022-09-14T13:51:05;20.10;99.90
8914;DHT22;4492;48.736;9.092;2022-09-14T13:53:39;20.10;99.90
8914;DHT22;4492;48.736;9.092;2022-09-14T13:58:48;20.20;99.90
8914;DHT22;4492;48.736;9.092;2022-09-14T14:01:26;20.00;99.90
8914;DHT22;4492;48.736;9.092;2022-09-14T14:03:52;19.90;99.90
8914;DHT22;4492;48.736;9.092;2022-09-14T14:06:27;19.90;99.90
8914;DHT22;4492;48.736;9.092;2022-09-14T14:09:08;19.80;99.90
8914;DHT22;4492;48.736;9.092;2022-09-14T14:11:43;19.70;99.90
8914;DHT22;4492;48.736;9.092;2022-09-14T14:16:39;19.50;99.90
8914;DHT22;4492;48.736;9.092;2022-09-14T14:19:14;19.50;99.90
8914;DHT22;4492;48.736;9.092;2022-09-14T14:21:51;19.50;99.90
8914;DHT22;4492;48.736;9.092;2022-09-14T14:24:36;19.50;99.90
8914;DHT22;4492;48.736;9.092;2022-09-14T14:27:02;19.50;99.90
8914;DHT22;4492;48.736;9.092;2022-09-14T14:29:28;19.60;99.90
8914;DHT22;4492;48.736;9.092;2022-09-14T14:31:54;19.50;99.90
8914;DHT22;4492;48.736;9.092;2022-09-14T14:34:28;19.50;99.90
8914;DHT22;4492;48.736;9.092;2022-09-14T14:36:54;19.50;99.90
8914;DHT22;4492;48.736;9.092;2022-09-14T14:39:23;19.40;99.90
8914;DHT22;4492;48.736;9.092;2022-09-14T14:41:49;19.30;99.90
8914;DHT22;4492;48.736;9.092;2022-09-14T14:44:19;19.20;99.90
8914;DHT22;4492;48.736;9.092;2022-09-14T14:46:45;19.20;99.90
8914;DHT22;4492;48.736;9.092;2022-09-14T14:49:12;19.10;99.90
8914;DHT22;4492;48.736;9.092;2022-09-14T14:51:38;19.00;99.90
8914;DHT22;4492;48.736;9.092;2022-09-14T14:54:04;19.00;99.90
8914;DHT22;4492;48.736;9.092;2022-09-14T14:56:30;18.90;99.90
8914;DHT22;4492;48.736;9.092;2022-09-14T14:58:56;18.80;99.90
8914;DHT22;4492;48.736;9.092;2022-09-14T15:01:21;18.70;99.90
8914;DHT22;4492;48.736;9.092;2022-09-14T15:03:47;18.70;99.90
8914;DHT22;4492;48.736;9.092;2022-09-14T15:06:17;18.70;99.90
8914;DHT22;4492;48.736;9.092;2022-09-14T15:08:43;18.70;99.90
8914;DHT22;4492;48.736;9.092;2022-09-14T15:11:16;18.60;99.90
8914;DHT22;4492;48.736;9.092;2022-09-14T15:13:43;18.60;99.90
8914;DHT22;4492;48.736;9.092;2022-09-14T15:16:09;18.60;99.90
8914;DHT22;4492;48.736;9.092;2022-09-14T15:18:35;18.60;99.90
8914;DHT22;4492;48.736;9.092;2022-09-14T15:21:00;18.50;99.90
8914;DHT22;4492;48.736;9.092;2022-09-14T15:23:26;18.50;99.90
8914;DHT22;4492;48.736;9.092;2022-09-14T15:25:51;18.50;99.90
8914;DHT22;4492;48.736;9.092;2022-09-14T15:28:17;18.50;99.90
8914;DHT22;4492;48.736;9.092;2022-09-14T15:30:43;18.50;99.90
8914;DHT22;4492;48.736;9.092;2022-09-14T15:33:09;18.70;99.90
8914;DHT22;4492;48.736;9.092;2022-09-14T15:35:34;18.90;99.90
8914;DHT22;4492;48.736;9.092;2022-09-14T15:38:00;19.00;99.90
8914;DHT22;4492;48.736;9.092;2022-09-14T15:40:25;19.00;99.90
8914;DHT22;4492;48.736;9.092;2022-09-14T15:42:51;19.10;99.90
8914;DHT22;4492;48.736;9.092;2022-09-14T15:45:17;19.20;99.90
8914;DHT22;4492;48.736;9.092;2022-09-14T15:47:42;19.30;99.90
8914;DHT22;4492;48.736;9.092;2022-09-14T15:50:08;19.20;99.90
8914;DHT22;4492;48.736;9.092;2022-09-14T15:52:36;19.20;99.90
8914;DHT22;4492;48.736;9.092;2022-09-14T15:55:04;19.30;99.90
8914;DHT22;4492;48.736;9.092;2022-09-14T15:57:30;19.40;99.90
8914;DHT22;4492;48.736;9.092;2022-09-14T15:59:55;19.50;99.90
8914;DHT22;4492;48.736;9.092;2022-09-14T16:02:21;19.50;99.90
8914;DHT22;4492;48.736;9.092;2022-09-14T16:04:46;19.50;99.90
8914;DHT22;4492;48.736;9.092;2022-09-14T16:07:12;19.50;99.90
8914;DHT22;4492;48.736;9.092;2022-09-14T16:09:39;19.30;99.90
8914;DHT22;4492;48.736;9.092;2022-09-14T16:12:06;19.10;99.90
8914;DHT22;4492;48.736;9.092;2022-09-14T16:14:32;18.80;99.90
8914;DHT22;4492;48.736;9.092;2022-09-14T16:16:58;18.60;99.90
8914;DHT22;4492;48.736;9.092;2022-09-14T16:19:24;18.40;99.90
8914;DHT22;4492;48.736;9.092;2022-09-14T16:21:50;18.30;99.90
8914;DHT22;4492;48.736;9.092;2022-09-14T16:24:17;18.20;99.90
8914;DHT22;4492;48.736;9.092;2022-09-14T16:26:43;18.10;99.90
8914;DHT22;4492;48.736;9.092;2022-09-14T16:29:11;18.00;99.90
8914;DHT22;4492;48.736;9.092;2022-09-14T16:31:38;18.00;99.90
8914;DHT22;4492;48.736;9.092;2022-09-14T16:34:07;18.00;99.90
8914;DHT22;4492;48.736;9.092;2022-09-14T16:36:35;18.10;99.90
8914;DHT22;4492;48.736;9.092;2022-09-14T16:39:03;18.20;99.90
8914;DHT22;4492;48.736;9.092;2022-09-14T16:41:30;18.20;99.90
8914;DHT22;4492;48.736;9.092;2022-09-14T16:43:57;18.20;99.90
8914;DHT22;4492;48.736;9.092;2022-09-14T16:46:24;18.20;99.90
8914;DHT22;4492;48.736;9.092;2022-09-14T16:48:50;18.30;99.90
8914;DHT22;4492;48.736;9.092;2022-09-14T16:51:18;18.30;99.90
8914;DHT22;4492;48.736;9.092;2022-09-14T16:53:44;18.30;99.90
8914;DHT22;4492;48.736;9.092;2022-09-14T16:56:13;18.20;99.90
8914;DHT22;4492;48.736;9.092;2022-09-14T16:58:40;18.20;99.90
8914;DHT22;4492;48.736;9.092;2022-09-14T17:01:08;18.10;99.90
8914;DHT22;4492;48.736;9.092;2022-09-14T17:03:35;18.10;99.90
8914;DHT22;4492;48.736;9.092;2022-09-14T17:06:05;18.00;99.90
8914;DHT22;4492;48.736;9.092;2022-09-14T17:08:32;17.90;99.90
8914;DHT22;4492;48.736;9.092;2022-09-14T17:10:59;17.90;99.90
8914;DHT22;4492;48.736;9.092;2022-09-14T17:13:25;17.80;99.90
8914;DHT22;4492;48.736;9.092;2022-09-14T17:15:51;17.80;99.90
8914;DHT22;4492;48.736;9.092;2022-09-14T17:18:17;17.70;99.90
8914;DHT22;4492;48.736;9.092;2022-09-14T17:20:57;17.70;99.90
8914;DHT22;4492;48.736;9.092;2022-09-14T17:23:23;17.70;99.90
8914;DHT22;4492;48.736;9.092;2022-09-14T17:25:49;17.70;99.90
8914;DHT22;4492;48.736;9.092;2022-09-14T17:28:15;17.60;99.90
8914;DHT22;4492;48.736;9.092;2022-09-14T17:30:41;17.60;99.90
8914;DHT22;4492;48.736;9.092;2022-09-14T17:33:07;17.50;99.90
8914;DHT22;4492;48.736;9.092;2022-09-14T17:35:33;17.50;99.90
8914;DHT22;4492;48.736;9.092;2022-09-14T17:37:59;17.50;99.90
8914;DHT22;4492;48.736;9.092;2022-09-14T17:40:24;17.50;99.90
8914;DHT22;4492;48.736;9.092;2022-09-14T17:42:50;17.40;99.90
8914;DHT22;4492;48.736;9.092;2022-09-14T17:45:15;17.30;99.90
8914;DHT22;4492;48.736;9.092;2022-09-14T17:47:41;17.30;99.90
8914;DHT22;4492;48.736;9.092;2022-09-14T17:50:07;17.30;99.90
8914;DHT22;4492;48.736;9.092;2022-09-14T17:52:33;17.20;99.90
8914;DHT22;4492;48.736;9.092;2022-09-14T17:55:00;17.20;99.90
8914;DHT22;4492;48.736;9.092;2022-09-14T17:57:25;17.10;99.90
8914;DHT22;4492;48.736;9.092;2022-09-14T17:59:51;17.10;99.90
8914;DHT22;4492;48.736;9.092;2022-09-14T18:02:16;17.10;99.90
8914;DHT22;4492;48.736;9.092;2022-09-14T18:04:44;17.00;99.90
8914;DHT22;4492;48.736;9.092;2022-09-14T18:07:10;17.00;99.90
8914;DHT22;4492;48.736;9.092;2022-09-14T18:09:36;17.00;99.90
8914;DHT22;4492;48.736;9.092;2022-09-14T18:12:02;17.00;99.90